createdAt,value
2018-08-22T00:02:36.965Z,8.40
2018-08-22T00:05:05.990Z,8.30
2018-08-22T00:07:35.005Z,8.50
2018-08-22T00:10:04.004Z,8.70
2018-08-22T01:02:40.868Z,7.70
2018-08-22T01:05:09.877Z,7.70
2018-08-22T01:07:38.901Z,7.80
2018-08-22T01:10:09.185Z,8.00
2018-08-22T02:03:02.588Z,7.60
2018-08-22T02:05:31.718Z,7.60
2018-08-22T02:08:00.748Z,7.70
2018-08-22T02:10:29.989Z,7.90
2018-08-22T03:02:37.384Z,7.00
2018-08-22T03:05:06.466Z,7.00
2018-08-22T03:07:35.424Z,7.20
2018-08-22T03:10:05.488Z,7.40
2018-08-22T04:02:39.972Z,7.10
2018-08-22T04:05:08.953Z,7.10
2018-08-22T04:07:38.031Z,7.30
2018-08-22T04:10:07.446Z,7.60
2018-08-22T05:02:37.468Z,8.90
2018-08-22T05:05:06.601Z,9.10
2018-08-22T05:07:35.593Z,9.40
2018-08-22T05:10:04.610Z,9.70
2018-08-22T06:02:40.128Z,11.90
2018-08-22T06:05:09.149Z,12.10
2018-08-22T06:07:38.120Z,12.30
2018-08-22T06:10:07.571Z,12.60
2018-08-22T07:02:59.437Z,15.00
2018-08-22T07:05:28.502Z,15.10
2018-08-22T07:07:57.561Z,15.30
2018-08-22T07:10:26.761Z,15.60
2018-08-22T08:02:46.606Z,17.10
2018-08-22T08:05:15.669Z,17.10
2018-08-22T08:07:44.641Z,17.30
2018-08-22T09:02:52.340Z,18.60
2018-08-22T09:05:21.574Z,18.70
2018-08-22T09:07:50.631Z,18.70
2018-08-22T09:10:19.669Z,19.10
2018-08-22T10:02:47.820Z,20.10
2018-08-22T10:05:16.810Z,20.00
2018-08-22T10:07:45.964Z,20.20
2018-08-22T10:10:15.080Z,20.60
2018-08-22T11:02:49.866Z,21.10
2018-08-22T11:05:18.937Z,21.20
2018-08-22T11:07:48.946Z,21.50
2018-08-22T11:10:18.459Z,21.70
2018-08-22T12:03:37.230Z,21.30
2018-08-22T12:06:06.216Z,21.40
2018-08-22T12:08:35.261Z,21.70
2018-08-22T13:02:50.357Z,21.90
2018-08-22T13:05:19.367Z,21.90
2018-08-22T13:07:48.477Z,22.30
2018-08-22T13:10:17.869Z,22.60
2018-08-22T14:02:36.985Z,30.20
2018-08-22T14:05:06.433Z,30.90
2018-08-22T14:07:35.488Z,30.70
2018-08-22T14:10:04.836Z,29.80
2018-08-22T15:02:48.598Z,22.30
2018-08-22T15:05:17.502Z,22.30
2018-08-22T15:07:46.498Z,24.40
2018-08-22T15:10:17.448Z,23.90
2018-08-22T16:02:37.915Z,19.90
2018-08-22T16:05:07.037Z,19.80
2018-08-22T16:07:36.031Z,19.90
2018-08-22T16:10:05.582Z,19.90
2018-08-22T17:02:39.038Z,16.70
2018-08-22T17:05:08.531Z,16.50
2018-08-22T17:07:37.536Z,16.50
2018-08-22T18:02:37.178Z,13.30
2018-08-22T18:05:06.227Z,13.10
2018-08-22T18:07:35.316Z,13.20
2018-08-22T18:10:04.355Z,13.30
2018-08-22T19:02:43.417Z,11.10
2018-08-22T19:05:27.486Z,11.10
2018-08-22T19:08:08.765Z,11.20
2018-08-22T20:02:40.001Z,10.00
2018-08-22T20:05:10.391Z,9.90
2018-08-22T20:07:39.968Z,10.10
2018-08-22T20:10:09.733Z,10.20
2018-08-22T21:02:37.576Z,9.10
2018-08-22T21:05:06.601Z,9.00
2018-08-22T21:07:39.497Z,9.20
2018-08-22T22:02:44.677Z,8.40
2018-08-22T22:05:13.726Z,8.40
2018-08-22T22:07:42.733Z,8.60
2018-08-22T23:03:09.511Z,7.90
2018-08-22T23:05:38.535Z,7.90
2018-08-22T23:08:07.509Z,8.00
2018-08-22T23:10:36.652Z,8.20
